Time;durP1;ratioP1;P1;durP2;ratioP2;P2;SDS_P1;SDS_P2;PMS_P1;PMS_P2;Temp;Humidity;BMP_temperature;BMP_pressure;BME280_temperature;BME280_humidity;BME280_pressure;Samples;Min_cycle;Max_cycle;Signal;HPM_P1;HPM_P2
2023/10/05 00:02:10;;;;;;;13.02;2.40;;;;;;;12.35;100.00;101982.75;5047657;28;20505;-77
2023/10/05 00:04:44;;;;;;;7.03;2.00;;;;;;;12.37;100.00;101980.16;5040935;28;20052;-77
2023/10/05 00:07:23;;;;;;;8.50;2.58;;;;;;;12.36;100.00;101984.56;5043481;28;20055;-77
2023/10/05 00:09:51;;;;;;;7.82;2.40;;;;;;;12.36;100.00;101992.47;5019272;28;20040;-77
2023/10/05 00:12:22;;;;;;;7.75;2.33;;;;;;;12.38;100.00;102000.41;5068939;28;20079;-77
2023/10/05 00:15:08;;;;;;;9.70;3.38;;;;;;;12.38;100.00;101998.69;5065388;28;20805;-77
2023/10/05 00:17:38;;;;;;;5.60;2.13;;;;;;;12.38;100.00;101985.47;5055054;28;20060;-77
2023/10/05 00:20:14;;;;;;;8.10;3.08;;;;;;;12.37;100.00;101985.44;5056156;28;20040;-77
2023/10/05 00:22:42;;;;;;;5.32;3.00;;;;;;;12.36;100.00;101981.91;5054210;28;20044;-77
2023/10/05 00:25:10;;;;;;;9.98;2.65;;;;;;;12.37;100.00;101980.16;5026335;28;21021;-77
2023/10/05 00:27:38;;;;;;;12.10;2.60;;;;;;;12.36;100.00;101973.97;5066707;28;20056;-77
2023/10/05 00:30:06;;;;;;;9.23;2.63;;;;;;;12.36;100.00;101967.78;5033354;28;20456;-77
2023/10/05 00:32:35;;;;;;;9.73;2.85;;;;;;;12.36;100.00;101968.69;5050902;28;20059;-77
2023/10/05 00:37:45;;;;;;;10.43;3.17;;;;;;;12.35;100.00;101973.94;5052668;28;20053;-77
2023/10/05 00:40:25;;;;;;;8.63;2.95;;;;;;;12.35;100.00;101977.47;5038975;28;20036;-77
2023/10/05 00:42:53;;;;;;;11.35;2.67;;;;;;;12.33;100.00;101968.63;5051094;28;20066;-77
2023/10/05 00:45:25;;;;;;;4.18;2.28;;;;;;;12.32;100.00;101958.91;5081141;28;20397;-77
2023/10/05 00:48:01;;;;;;;11.32;2.65;;;;;;;12.31;100.00;101956.28;5033089;28;20040;-77
2023/10/05 00:50:29;;;;;;;7.90;2.88;;;;;;;12.30;100.00;101963.28;5054472;28;20037;-77
2023/10/05 00:52:56;;;;;;;7.60;2.28;;;;;;;12.29;100.00;101964.19;5060506;28;20040;-77
2023/10/05 00:55:25;;;;;;;8.68;2.38;;;;;;;12.29;100.00;101964.19;5066998;28;20055;-77
2023/10/05 00:57:54;;;;;;;13.88;3.22;;;;;;;12.26;100.00;101965.00;5023244;28;20135;-77
2023/10/05 01:00:28;;;;;;;9.30;2.45;;;;;;;12.27;100.00;101972.09;5065599;28;20048;-77
2023/10/05 01:03:47;;;;;;;7.22;2.22;;;;;;;12.27;100.00;101958.88;5066937;28;20494;-77
2023/10/05 01:05:56;;;;;;;3.95;2.00;;;;;;;12.27;100.00;101964.16;5038320;28;20044;-77
2023/10/05 01:08:23;;;;;;;5.18;2.10;;;;;;;12.27;100.00;101964.16;5075666;28;20044;-77
2023/10/05 01:10:54;;;;;;;8.43;2.38;;;;;;;12.27;100.00;101963.28;5053300;28;20508;-77
2023/10/05 01:13:31;;;;;;;;;;;;;;;12.28;100.00;101957.09;5019698;28;20055;-77
2023/10/05 01:15:59;;;;;;;9.10;2.05;;;;;;;12.27;100.00;101952.69;5061000;28;19920;-77
2023/10/05 01:18:29;;;;;;;8.13;1.85;;;;;;;12.27;100.00;101952.69;5064927;28;20390;-77
2023/10/05 01:20:58;;;;;;;15.05;2.85;;;;;;;12.27;100.00;101948.28;5030925;28;20040;-77
2023/10/05 01:23:37;;;;;;;6.20;2.78;;;;;;;12.28;100.00;101952.69;5060300;28;20048;-77
2023/10/05 01:26:12;;;;;;;13.50;3.40;;;;;;;12.28;100.00;101950.06;5069117;28;20070;-77
2023/10/05 01:28:42;;;;;;;11.85;2.78;;;;;;;12.28;100.00;101946.53;5006578;28;20059;-77
2023/10/05 01:31:16;;;;;;;;;;;;;;;12.27;100.00;101948.28;5065118;28;20040;-77
2023/10/05 01:33:46;;;;;;;8.27;2.22;;;;;;;12.27;100.00;101948.28;5046833;28;19920;-77
2023/10/05 01:36:19;;;;;;;7.03;2.25;;;;;;;12.27;100.00;101950.06;5039127;28;20040;-77
2023/10/05 01:38:48;;;;;;;5.20;2.00;;;;;;;12.27;100.00;101960.63;5061939;28;20052;-77
2023/10/05 01:41:21;;;;;;;12.52;3.15;;;;;;;12.27;100.00;101958.88;5052047;28;20064;-77
2023/10/05 01:43:49;;;;;;;10.88;2.55;;;;;;;12.26;100.00;101951.78;5022939;28;20036;-77
2023/10/05 01:46:17;;;;;;;7.75;2.08;;;;;;;12.27;100.00;101952.69;5084453;28;20040;-77
2023/10/05 01:48:44;;;;;;;8.25;1.95;;;;;;;12.27;100.00;101958.00;5039176;28;20413;-77
2023/10/05 01:51:19;;;;;;;8.82;2.45;;;;;;;12.27;100.00;101956.22;5039398;28;20048;-77
2023/10/05 01:53:51;;;;;;;10.00;2.55;;;;;;;12.28;100.00;101963.28;5055509;28;20062;-77
2023/10/05 01:56:20;;;;;;;8.70;2.05;;;;;;;12.28;100.00;101952.69;5040080;28;20505;-77
2023/10/05 01:58:52;;;;;;;9.13;2.10;;;;;;;12.28;100.00;101950.06;5004315;28;20042;-77
2023/10/05 02:01:20;;;;;;;7.60;2.30;;;;;;;12.29;100.00;101951.84;5050673;28;20307;-77
2023/10/05 02:03:57;;;;;;;11.15;2.05;;;;;;;12.29;100.00;101950.97;5066894;28;20071;-77
2023/10/05 02:06:28;;;;;;;7.78;2.58;;;;;;;12.29;100.00;101950.97;5047067;28;20055;-77
2023/10/05 02:08:55;;;;;;;7.82;2.50;;;;;;;12.31;100.00;101956.28;5054753;28;20424;-77
2023/10/05 02:11:24;;;;;;;7.10;2.58;;;;;;;12.30;100.00;101950.09;5053379;28;20413;-77
2023/10/05 02:13:52;;;;;;;5.28;2.78;;;;;;;12.31;100.00;101948.34;4976392;28;20055;-77
2023/10/05 02:16:22;;;;;;;10.57;2.33;;;;;;;12.31;100.00;101951.88;5048246;28;20056;-77
2023/10/05 02:18:53;;;;;;;5.10;2.17;;;;;;;12.34;100.00;101943.97;5042020;28;20051;-77
2023/10/05 02:21:32;;;;;;;7.80;2.42;;;;;;;12.35;100.00;101956.31;5045539;28;20493;-77
2023/10/05 02:29:34;;;;;;;9.90;2.45;;;;;;;12.39;100.00;101938.75;5067275;28;20066;-77
2023/10/05 02:34:41;;;;;;;7.57;2.75;;;;;;;12.39;100.00;101944.91;5021588;28;20055;-77
2023/10/05 02:37:12;;;;;;;8.35;2.53;;;;;;;12.38;100.00;101943.16;5065098;28;20047;-77
2023/10/05 02:39:41;;;;;;;7.32;2.05;;;;;;;12.38;100.00;101937.88;5073160;28;20044;-77
2023/10/05 02:42:16;;;;;;;12.38;2.28;;;;;;;12.39;100.00;101930.81;5051262;28;20039;-77
2023/10/05 02:44:45;;;;;;;9.00;2.60;;;;;;;12.38;100.00;101929.94;5061718;28;20051;-77
2023/10/05 02:47:14;;;;;;;8.07;2.67;;;;;;;12.38;100.00;101931.69;5003706;28;20053;-77
2023/10/05 02:49:47;;;;;;;7.93;2.90;;;;;;;12.37;100.00;101933.44;5040462;28;20051;-77
2023/10/05 02:52:16;;;;;;;10.60;2.08;;;;;;;12.36;100.00;101931.69;5036421;28;20052;-77
2023/10/05 02:54:48;;;;;;;16.65;3.05;;;;;;;12.35;100.00;101923.72;5060781;28;20063;-77
2023/10/05 02:57:16;;;;;;;11.98;2.80;;;;;;;12.33;100.00;101928.13;5051079;28;20466;-77
2023/10/05 02:59:45;;;;;;;11.30;2.50;;;;;;;12.33;100.00;101922.81;5031055;28;20417;-77
2023/10/05 03:02:19;;;;;;;12.18;3.85;;;;;;;12.31;100.00;101920.16;5024118;28;20036;-77
2023/10/05 03:04:58;;;;;;;8.05;2.45;;;;;;;12.29;100.00;101924.53;5048469;28;20048;-77
2023/10/05 03:07:27;;;;;;;8.35;2.78;;;;;;;12.28;100.00;101925.38;5055204;28;20048;-77
2023/10/05 03:10:00;;;;;;;8.80;3.65;;;;;;;12.25;100.00;101920.09;5030363;28;20041;-77
2023/10/05 03:12:35;;;;;;;12.00;2.90;;;;;;;12.22;100.00;101931.47;5043759;28;20056;-77
2023/10/05 03:15:08;;;;;;;11.35;3.38;;;;;;;12.20;100.00;101935.84;5046385;28;20575;-77
2023/10/05 03:17:39;;;;;;;9.23;2.78;;;;;;;12.20;100.00;101929.69;4994701;28;20040;-77
2023/10/05 03:20:18;;;;;;;13.77;2.63;;;;;;;12.21;100.00;101931.44;5050629;28;20055;-77
2023/10/05 03:22:46;;;;;;;12.48;2.30;;;;;;;12.22;100.00;101931.47;5063858;28;20052;-77
2023/10/05 03:25:16;;;;;;;11.05;2.92;;;;;;;12.25;100.00;101938.59;5046790;28;20048;-77
2023/10/05 03:27:45;;;;;;;11.32;2.40;;;;;;;12.27;100.00;101924.50;5038862;28;20056;-76
2023/10/05 03:30:14;;;;;;;11.07;3.17;;;;;;;12.29;100.00;101927.19;5069063;28;20072;-77
2023/10/05 03:32:48;;;;;;;10.70;2.88;;;;;;;12.32;100.00;101918.38;5044681;28;20044;-78
2023/10/05 03:35:22;;;;;;;7.72;2.70;;;;;;;12.34;100.00;101919.28;5038415;28;20072;-76
2023/10/05 03:37:50;;;;;;;8.65;2.70;;;;;;;12.38;100.00;101916.72;5057259;28;20482;-77
2023/10/05 03:40:25;;;;;;;7.85;2.22;;;;;;;12.41;100.00;101916.75;5065897;28;20051;-76
2023/10/05 03:42:59;;;;;;;12.52;3.20;;;;;;;12.44;100.00;101914.16;5053287;28;20036;-76
2023/10/05 03:45:32;;;;;;;18.67;2.60;;;;;;;12.48;100.00;101915.09;5051701;28;20056;-77
2023/10/05 03:48:01;;;;;;;11.80;2.65;;;;;;;12.49;100.00;101911.56;5056819;28;21028;-77
2023/10/05 03:50:30;;;;;;;15.48;3.08;;;;;;;12.51;100.00;101903.66;4996198;28;20048;-77
2023/10/05 03:52:58;;;;;;;11.02;2.28;;;;;;;12.53;100.00;101907.19;5064422;28;20402;-77
2023/10/05 03:55:26;;;;;;;8.98;2.88;;;;;;;12.54;100.00;101914.28;5067325;28;20441;-77
2023/10/05 03:57:57;;;;;;;13.93;2.55;;;;;;;12.55;100.00;101919.59;5039409;28;20056;-77
2023/10/05 04:00:34;;;;;;;9.43;2.65;;;;;;;12.57;100.00;101925.78;5018936;28;20048;-77
2023/10/05 04:03:06;;;;;;;8.48;2.55;;;;;;;12.58;100.00;101921.38;5011575;28;20056;-77
2023/10/05 04:05:37;;;;;;;13.52;2.78;;;;;;;12.59;100.00;101920.47;5018423;28;20051;-77
2023/10/05 04:08:11;;;;;;;13.47;2.90;;;;;;;12.60;100.00;101927.56;5059471;28;20044;-77
2023/10/05 04:10:46;;;;;;;12.82;2.85;;;;;;;12.60;100.00;101924.91;5060596;28;20073;-77
2023/10/05 04:13:20;;;;;;;16.13;3.08;;;;;;;12.63;100.00;101919.69;5057395;28;20052;-77
2023/10/05 04:15:50;;;;;;;15.77;3.28;;;;;;;12.65;100.00;101933.81;5033962;28;20059;-76
2023/10/05 04:18:20;;;;;;;12.15;3.35;;;;;;;12.68;100.00;101925.88;5063259;28;20441;-76
2023/10/05 04:20:48;;;;;;;10.38;2.33;;;;;;;12.72;100.00;101925.06;5006509;28;20049;-76
2023/10/05 04:23:25;;;;;;;12.63;2.28;;;;;;;12.75;100.00;101927.75;5024849;28;20044;-75
2023/10/05 04:25:57;;;;;;;13.95;2.30;;;;;;;12.76;100.00;101926.88;5051734;28;20040;-76
2023/10/05 04:28:52;;;;;;;15.35;3.33;;;;;;;12.78;100.00;101938.38;5062729;28;20225;-76
2023/10/05 04:31:16;;;;;;;15.13;2.80;;;;;;;12.78;100.00;101930.44;5040715;28;20086;-77
2023/10/05 04:33:45;;;;;;;11.68;2.60;;;;;;;12.79;100.00;101923.38;5064993;28;20048;-76
2023/10/05 04:36:13;;;;;;;16.02;2.95;;;;;;;12.78;100.00;101919.84;5006762;28;20071;-76
2023/10/05 04:38:41;;;;;;;10.70;2.65;;;;;;;12.76;100.00;101921.59;5041237;28;20040;-77
2023/10/05 04:41:12;;;;;;;10.23;2.85;;;;;;;12.74;100.00;101918.03;5052282;28;20043;-77
2023/10/05 04:43:41;;;;;;;13.32;2.65;;;;;;;12.72;100.00;101911.84;5063844;28;20049;-76
2023/10/05 04:46:09;;;;;;;14.85;2.90;;;;;;;12.70;100.00;101920.63;5039564;28;20045;-76
2023/10/05 04:48:47;;;;;;;10.07;2.83;;;;;;;12.68;100.00;101918.88;5047294;28;20040;-77
2023/10/05 04:51:14;;;;;;;10.80;2.28;;;;;;;12.67;100.00;101916.19;5027399;28;20045;-76
2023/10/05 04:53:42;;;;;;;9.13;2.50;;;;;;;12.66;100.00;101917.97;5051330;28;20049;-76
2023/10/05 04:56:22;;;;;;;11.43;2.85;;;;;;;12.67;100.00;101929.41;5056832;28;20045;-76
2023/10/05 04:58:53;;;;;;;13.85;2.75;;;;;;;12.66;100.00;101925.91;5065326;28;20051;-76
2023/10/05 05:01:32;;;;;;;;;;;;;;;12.67;100.00;101925.00;5029837;28;20387;-76
2023/10/05 05:06:45;;;;;;;11.93;3.50;;;;;;;12.73;100.00;101928.59;5014019;28;20053;-75
2023/10/05 05:09:12;;;;;;;14.60;3.42;;;;;;;12.75;100.00;101917.16;5025114;28;20502;-76
2023/10/05 05:11:40;;;;;;;12.88;2.70;;;;;;;12.78;100.00;101924.22;5021394;28;20417;-76
2023/10/05 05:14:08;;;;;;;17.00;2.75;;;;;;;12.79;100.00;101921.59;5039236;28;20063;-76
2023/10/05 05:16:35;;;;;;;13.60;2.47;;;;;;;12.81;100.00;101919.88;5045111;28;20481;-76
2023/10/05 05:19:03;;;;;;;8.55;2.88;;;;;;;12.84;100.00;101927.84;5058243;28;20052;-76
2023/10/05 05:21:31;;;;;;;9.02;2.60;;;;;;;12.86;100.00;101927.88;5031242;28;20405;-76
2023/10/05 05:23:59;;;;;;;13.65;2.35;;;;;;;12.87;100.00;101922.59;4993808;28;20060;-75
2023/10/05 05:26:26;;;;;;;13.05;2.45;;;;;;;12.90;100.00;101924.38;5036793;28;20036;-76
2023/10/05 05:28:53;;;;;;;13.18;3.15;;;;;;;12.93;100.00;101918.22;5062902;28;20056;-76
2023/10/05 05:31:21;;;;;;;11.25;2.95;;;;;;;12.95;100.00;101914.75;5056385;28;20053;-77
2023/10/05 05:33:48;;;;;;;11.70;2.70;;;;;;;12.99;100.00;101916.53;5036471;28;20056;-77
2023/10/05 05:36:17;;;;;;;6.88;3.08;;;;;;;13.02;100.00;101921.88;5047903;28;20067;-77
2023/10/05 05:38:47;;;;;;;11.88;3.08;;;;;;;13.06;100.00;101925.41;5025632;28;20044;-78
2023/10/05 05:41:16;;;;;;;14.00;2.88;;;;;;;13.07;100.00;101920.13;5052918;28;20422;-77
2023/10/05 05:43:44;;;;;;;11.38;2.60;;;;;;;13.11;100.00;101930.78;5047407;28;20063;-77
2023/10/05 05:46:12;;;;;;;12.32;2.40;;;;;;;13.10;100.00;101932.53;5049235;28;20044;-77
2023/10/05 05:48:42;;;;;;;14.60;2.88;;;;;;;13.11;100.00;101934.28;5038176;28;20059;-77
2023/10/05 05:51:23;;;;;;;14.25;3.03;;;;;;;13.11;100.00;101925.47;5038339;28;20417;-78
2023/10/05 05:53:52;;;;;;;14.43;2.83;;;;;;;13.14;100.00;101921.09;4995395;28;20056;-77
2023/10/05 05:56:28;;;;;;;11.35;2.38;;;;;;;13.14;100.00;101931.69;5040621;28;20044;-78
2023/10/05 05:58:56;;;;;;;14.23;3.08;;;;;;;13.16;100.00;101924.66;5060553;28;20063;-77
2023/10/05 06:01:26;;;;;;;13.52;2.55;;;;;;;13.20;100.00;101942.31;5046530;28;20048;-78
2023/10/05 06:03:53;;;;;;;12.45;2.60;;;;;;;13.22;100.00;101937.94;5004918;28;20063;-77
2023/10/05 06:06:21;;;;;;;14.52;2.70;;;;;;;13.26;100.00;101934.44;5057638;28;20049;-77
2023/10/05 06:08:49;;;;;;;13.00;2.60;;;;;;;13.31;100.00;101950.41;4988831;28;20056;-77
2023/10/05 06:11:16;;;;;;;11.45;2.75;;;;;;;13.34;100.00;101954.84;5020367;28;20036;-77
2023/10/05 06:13:45;;;;;;;11.70;3.13;;;;;;;13.37;100.00;101958.41;5003107;28;20050;-77
2023/10/05 06:16:14;;;;;;;11.65;4.05;;;;;;;13.41;100.00;101964.63;5024572;28;20052;-77
2023/10/05 06:18:43;;;;;;;18.90;3.65;;;;;;;13.44;100.00;101962.88;5053953;28;20115;-77
2023/10/05 06:21:11;;;;;;;12.48;3.33;;;;;;;13.49;100.00;101972.63;5047077;28;20044;-77
2023/10/05 06:23:39;;;;;;;24.05;3.08;;;;;;;13.51;100.00;101973.53;5020618;28;20033;-77
2023/10/05 06:26:07;;;;;;;14.65;2.92;;;;;;;13.53;100.00;101975.31;5038308;28;20052;-77
2023/10/05 06:28:35;;;;;;;9.35;3.08;;;;;;;13.57;100.00;101974.50;5006664;28;20060;-77
2023/10/05 06:31:03;;;;;;;11.70;2.70;;;;;;;13.60;100.00;101976.25;5043226;28;20047;-78
2023/10/05 06:33:33;;;;;;;15.10;2.90;;;;;;;13.62;100.00;101977.16;5009490;28;20056;-78
2023/10/05 06:36:02;;;;;;;11.33;2.70;;;;;;;13.64;100.00;101971.00;5025194;28;20699;-78
2023/10/05 06:38:30;;;;;;;16.90;3.22;;;;;;;13.65;100.00;101971.91;4999392;28;20309;-77
2023/10/05 06:40:57;;;;;;;9.77;2.67;;;;;;;13.67;100.00;101979.84;5048777;28;20525;-77
2023/10/05 06:43:26;;;;;;;15.10;3.10;;;;;;;13.70;100.00;101993.13;5044117;28;20053;-77
2023/10/05 06:45:54;;;;;;;11.40;2.67;;;;;;;13.71;100.00;101985.19;5051188;28;20048;-77
2023/10/05 06:48:21;;;;;;;18.30;3.20;;;;;;;13.75;100.00;101996.69;5041691;28;20047;-77
2023/10/05 06:50:49;;;;;;;12.63;3.03;;;;;;;13.77;100.00;101989.66;5050330;28;20044;-77
2023/10/05 06:53:17;;;;;;;13.77;3.53;;;;;;;13.81;100.00;102004.69;5038294;28;20052;-77
2023/10/05 06:55:45;;;;;;;11.35;2.67;;;;;;;13.82;100.00;102007.38;4990648;28;20139;-78
2023/10/05 06:58:13;;;;;;;10.55;2.45;;;;;;;13.84;100.00;102013.56;5034050;28;20057;-76
2023/10/05 07:00:40;;;;;;;17.25;4.00;;;;;;;13.86;100.00;102008.28;5053181;28;20045;-76
2023/10/05 07:03:10;;;;;;;14.50;3.10;;;;;;;13.87;100.00;102004.72;5045457;28;20037;-76
2023/10/05 07:05:39;;;;;;;14.13;3.42;;;;;;;13.87;100.00;102017.97;5052441;28;20524;-78
2023/10/05 07:08:07;;;;;;;6.50;2.63;;;;;;;13.88;100.00;102025.06;5017053;28;20044;-76
2023/10/05 07:10:35;;;;;;;14.88;2.47;;;;;;;13.87;100.00;102025.06;5018238;28;20506;-77
2023/10/05 07:13:08;;;;;;;11.43;3.08;;;;;;;13.86;100.00;102031.25;5035507;28;20056;-76
2023/10/05 07:15:36;;;;;;;11.80;3.17;;;;;;;13.84;100.00;102024.16;5040901;28;20750;-77
2023/10/05 07:18:04;;;;;;;14.05;3.28;;;;;;;13.84;100.00;102026.81;5043528;28;20057;-76
2023/10/05 07:20:31;;;;;;;17.63;3.30;;;;;;;13.86;100.00;102016.22;5053541;28;20056;-78
2023/10/05 07:23:00;;;;;;;8.75;2.55;;;;;;;13.87;100.00;102023.28;5025315;28;20033;-76
2023/10/05 07:25:28;;;;;;;13.40;3.50;;;;;;;13.88;100.00;102025.06;5022408;28;20049;-76
2023/10/05 07:27:56;;;;;;;10.68;2.88;;;;;;;13.88;100.00;102032.16;5036245;28;20067;-76
2023/10/05 07:30:24;;;;;;;15.25;3.38;;;;;;;13.89;100.00;102040.06;5030408;28;20606;-77
2023/10/05 07:32:51;;;;;;;16.73;3.00;;;;;;;13.89;100.00;102041.84;5036999;28;20056;-77
2023/10/05 07:35:39;;;;;;;13.25;2.92;;;;;;;13.88;100.00;102048.91;5010195;28;20052;-77
2023/10/05 07:38:06;;;;;;;20.02;3.53;;;;;;;13.87;100.00;102049.78;5054965;28;20055;-77
2023/10/05 07:40:36;;;;;;;15.50;3.30;;;;;;;13.86;100.00;102053.31;4985017;28;20134;-76
2023/10/05 07:43:06;;;;;;;18.65;4.35;;;;;;;13.86;100.00;102063.91;5033935;28;20390;-76
2023/10/05 07:45:34;;;;;;;13.43;2.90;;;;;;;13.84;100.00;102066.53;5037578;28;20045;-76
2023/10/05 07:48:04;;;;;;;13.63;3.95;;;;;;;13.84;100.00;102069.19;5066530;28;20067;-77
2023/10/05 07:50:34;;;;;;;15.90;4.32;;;;;;;13.84;100.00;102070.97;5046339;28;20044;-77
2023/10/05 07:53:02;;;;;;;11.32;2.92;;;;;;;13.84;100.00;102078.91;5065645;28;20056;-77
2023/10/05 07:55:31;;;;;;;19.70;3.78;;;;;;;13.87;100.00;102091.28;5061866;28;20048;-76
2023/10/05 07:58:02;;;;;;;17.40;3.25;;;;;;;13.87;100.00;102092.16;5010654;28;20049;-77
2023/10/05 08:00:29;;;;;;;11.38;3.40;;;;;;;13.88;100.00;102099.25;5013157;28;20390;-76
2023/10/05 08:02:57;;;;;;;14.27;3.35;;;;;;;13.88;100.00;102106.34;5030006;28;20032;-77
2023/10/05 08:05:25;;;;;;;9.50;2.85;;;;;;;13.87;100.00;102108.06;5053388;28;20252;-77
2023/10/05 08:07:54;;;;;;;10.23;3.22;;;;;;;13.84;100.00;102116.88;5020082;28;20389;-76
2023/10/05 08:10:23;;;;;;;12.63;3.47;;;;;;;13.83;100.00;102124.81;5046739;28;20596;-77
2023/10/05 08:12:50;;;;;;;15.02;3.17;;;;;;;13.82;100.00;102125.72;5004459;28;20828;-78
2023/10/05 08:15:18;;;;;;;12.50;3.33;;;;;;;13.83;100.00;102138.06;5060648;28;20071;-77
2023/10/05 08:17:48;;;;;;;10.05;3.20;;;;;;;13.83;100.00;102135.41;5046985;28;20040;-77
2023/10/05 08:20:17;;;;;;;14.75;3.63;;;;;;;13.83;100.00;102138.06;5027072;28;20048;-77
2023/10/05 08:22:49;;;;;;;10.30;2.65;;;;;;;13.83;100.00;102141.59;5036195;28;20056;-77
2023/10/05 08:25:17;;;;;;;11.02;2.88;;;;;;;13.83;100.00;102138.06;5017466;28;20049;-77
2023/10/05 08:27:44;;;;;;;12.05;2.47;;;;;;;13.82;100.00;102142.47;5004196;28;20402;-77
2023/10/05 08:30:12;;;;;;;8.65;2.55;;;;;;;13.83;100.00;102146.88;5041718;28;20052;-77
2023/10/05 08:32:47;;;;;;;8.65;2.55;;;;;;;13.83;100.00;102156.59;5017785;28;20052;-77
2023/10/05 08:35:17;;;;;;;11.52;2.33;;;;;;;13.86;100.00;102153.13;5035702;28;20967;-77
2023/10/05 08:37:53;;;;;;;;;;;;;;;13.90;100.00;102147.84;5062597;28;20540;-76
2023/10/05 08:40:39;;;;;;;10.15;2.60;;;;;;;13.96;100.00;102152.34;5064942;28;20293;-76
2023/10/05 08:43:16;;;;;;;10.25;3.65;;;;;;;14.05;100.00;102152.44;5011911;28;20052;-78
2023/10/05 08:45:51;;;;;;;14.40;3.10;;;;;;;14.16;100.00;102160.50;5046139;28;20063;-76
2023/10/05 08:48:35;;;;;;;14.15;3.13;;;;;;;14.24;100.00;102156.13;5065143;28;20504;-77
2023/10/05 08:51:09;;;;;;;6.95;2.65;;;;;;;14.29;100.00;102162.38;5065056;28;20032;-77
2023/10/05 08:53:48;;;;;;;8.05;2.85;;;;;;;14.31;100.00;102157.97;5043621;28;20036;-77
2023/10/05 08:56:17;;;;;;;11.52;3.13;;;;;;;14.35;100.00;102177.44;5069145;28;20044;-77
2023/10/05 08:58:46;;;;;;;6.78;2.22;;;;;;;14.38;100.00;102178.34;5013070;28;20059;-77
2023/10/05 09:01:34;;;;;;;7.10;2.25;;;;;;;14.43;100.00;102178.41;5068809;28;20052;-77
2023/10/05 09:04:23;;;;;;;6.88;1.95;;;;;;;14.47;100.00;102174.00;5026239;28;20048;-77
2023/10/05 09:06:59;;;;;;;6.93;2.33;;;;;;;14.49;100.00;102174.91;5050561;28;20044;-77
2023/10/05 09:09:38;;;;;;;8.35;2.30;;;;;;;14.53;100.00;102174.94;5065121;28;20489;-76
2023/10/05 09:12:41;;;;;;;6.93;2.20;;;;;;;14.61;100.00;102183.88;5040298;28;20055;-76
2023/10/05 09:18:17;;;;;;;9.40;2.05;;;;;;;14.82;100.00;102184.94;5059169;28;20123;-76
2023/10/05 09:20:49;;;;;;;8.15;1.98;;;;;;;14.93;100.00;102200.91;5044946;28;20044;-76
2023/10/05 09:23:24;;;;;;;12.68;2.65;;;;;;;15.01;100.00;102196.56;5027354;28;20456;-76
2023/10/05 09:25:53;;;;;;;9.77;2.40;;;;;;;15.05;100.00;102195.69;5047691;28;20056;-76
2023/10/05 09:28:51;;;;;;;9.80;2.42;;;;;;;15.12;100.00;102200.16;4999770;28;20048;-76
2023/10/05 09:31:33;;;;;;;5.22;2.42;;;;;;;15.24;100.00;102203.78;5074025;28;20059;-75
2023/10/05 09:34:05;;;;;;;8.57;2.22;;;;;;;15.31;100.00;102208.19;5045359;28;20051;-76
2023/10/05 09:36:36;;;;;;;5.25;1.90;;;;;;;15.39;100.00;102211.81;5036164;28;20433;-76
2023/10/05 09:39:04;;;;;;;10.50;2.47;;;;;;;15.44;100.00;102228.63;5049694;28;20047;-77
2023/10/05 09:41:36;;;;;;;5.68;2.25;;;;;;;15.49;100.00;102228.69;5080667;28;20055;-77
2023/10/05 09:44:07;;;;;;;;;;;;;;;15.52;100.00;102218.94;5056254;28;21605;-76
2023/10/05 09:46:36;;;;;;;8.13;2.13;;;;;;;15.54;100.00;102217.19;5038925;28;19920;-77
2023/10/05 09:49:05;;;;;;;7.65;2.03;;;;;;;15.57;100.00;102226.94;5076290;28;20055;-76
2023/10/05 09:51:35;;;;;;;12.15;2.80;;;;;;;15.58;100.00;102226.06;5035407;28;20445;-79
2023/10/05 09:54:08;;;;;;;5.78;2.50;;;;;;;15.62;100.00;102226.97;5078507;28;20047;-80
2023/10/05 09:56:41;;;;;;;5.60;2.00;;;;;;;15.62;100.00;102227.84;5050643;28;20060;-77
2023/10/05 09:59:18;;;;;;;9.80;2.08;;;;;;;15.59;100.00;102230.47;5020770;28;20048;-77
2023/10/05 10:01:48;;;;;;;10.75;1.83;;;;;;;15.58;100.00;102232.25;5054803;28;20047;-77
2023/10/05 10:04:34;;;;;;;8.38;2.17;;;;;;;15.53;100.00;102227.81;5062380;28;20202;-77
2023/10/05 10:07:15;;;;;;;12.88;2.92;;;;;;;15.46;100.00;102232.19;5049804;28;20488;-77
2023/10/05 10:09:46;;;;;;;9.98;2.97;;;;;;;15.39;100.00;102239.25;5096244;28;20058;-76
2023/10/05 10:12:31;;;;;;;;;;;;;;;15.33;100.00;102225.94;5044276;28;20036;-77
2023/10/05 10:14:59;;;;;;;6.38;1.70;;;;;;;15.30;100.00;102233.00;5050997;28;19923;-77
2023/10/05 10:17:31;;;;;;;8.30;2.17;;;;;;;15.34;100.00;102229.47;5044068;28;20047;-77
2023/10/05 10:20:28;;;;;;;8.10;1.67;;;;;;;15.35;100.00;102236.59;5075230;28;20047;-77
2023/10/05 10:22:55;;;;;;;8.52;1.63;;;;;;;15.36;100.00;102228.59;5046017;28;20048;-77
2023/10/05 10:25:38;;;;;;;5.30;1.65;;;;;;;15.41;100.00;102236.59;5047631;28;20192;-78
2023/10/05 10:28:15;;;;;;;4.63;1.35;;;;;;;15.43;100.00;102239.28;5049962;28;20063;-77
2023/10/05 10:30:47;;;;;;;5.20;1.20;;;;;;;15.49;100.00;102240.19;5083747;28;20044;-78
2023/10/05 10:33:27;;;;;;;4.78;1.95;;;;;;;15.63;100.00;102240.22;5028494;28;20459;-77
2023/10/05 10:35:56;;;;;;;5.22;1.40;;;;;;;15.77;100.00;102243.00;5063779;28;20406;-78
2023/10/05 10:38:24;;;;;;;6.47;1.83;;;;;;;15.88;100.00;102248.34;5044006;28;20048;-78
2023/10/05 10:41:15;;;;;;;2.47;1.13;;;;;;;15.98;100.00;102245.72;5079596;28;20091;-77
2023/10/05 10:44:07;;;;;;;4.20;1.55;;;;;;;16.08;100.00;102245.75;5022469;28;20056;-77
2023/10/05 10:46:34;;;;;;;7.07;1.45;;;;;;;16.23;100.00;102245.78;5020547;28;20048;-77
2023/10/05 10:49:07;;;;;;;2.97;1.10;;;;;;;16.34;100.00;102244.03;5080413;28;20066;-78
2023/10/05 10:51:38;;;;;;;3.35;1.30;;;;;;;16.50;100.00;102247.63;5050657;28;20040;-78
2023/10/05 10:54:17;;;;;;;4.07;1.45;;;;;;;16.65;100.00;102238.72;5056732;28;20436;-76
2023/10/05 10:56:44;;;;;;;6.68;1.33;;;;;;;16.72;100.00;102234.31;5088558;28;20390;-77
2023/10/05 10:59:15;;;;;;;7.57;1.40;;;;;;;16.73;100.00;102236.97;5025794;28;20515;-77
2023/10/05 11:01:44;;;;;;;5.28;1.30;;;;;;;16.73;100.00;102241.41;5076588;28;20408;-77
2023/10/05 11:04:25;;;;;;;1.67;1.10;;;;;;;16.68;100.00;102245.84;5036955;28;20420;-77
2023/10/05 11:06:56;;;;;;;2.88;1.15;;;;;;;16.66;100.00;102248.50;5064969;28;20036;-77
2023/10/05 11:09:30;;;;;;;3.88;1.00;;;;;;;16.66;100.00;102253.81;5065572;28;20044;-77
2023/10/05 11:12:15;;;;;;;3.28;1.20;;;;;;;16.62;100.00;102259.16;5048531;28;20048;-77
2023/10/05 11:14:43;;;;;;;10.38;1.75;;;;;;;16.54;100.00;102254.72;5077901;28;20047;-77
2023/10/05 11:17:31;;;;;;;4.15;1.30;;;;;;;16.46;100.00;102261.78;5051694;28;20047;-77
2023/10/05 11:20:15;;;;;;;3.00;0.52;;;;;;;16.38;100.00;102272.41;5026957;28;20051;-77
2023/10/05 11:22:42;;;;;;;2.33;0.82;;;;;;;16.28;100.00;102270.63;5069056;28;20106;-77
2023/10/05 11:25:23;;;;;;;1.55;0.60;;;;;;;16.24;100.00;102260.88;5050526;28;20063;-78
2023/10/05 11:27:57;;;;;;;4.47;0.80;;;;;;;16.25;100.00;102264.41;5070971;28;20053;-77
2023/10/05 11:30:47;;;;;;;3.40;0.80;;;;;;;16.25;100.00;102272.38;5058405;28;20079;-77
2023/10/05 11:33:34;;;;;;;1.55;1.05;;;;;;;16.23;100.00;102258.19;5073998;28;20055;-77
2023/10/05 11:36:27;;;;;;;1.33;0.80;;;;;;;16.17;100.00;102267.06;5034339;28;20412;-77
2023/10/05 11:38:59;;;;;;;4.38;0.90;;;;;;;16.10;100.00;102274.09;5066131;28;20043;-77
2023/10/05 11:41:32;;;;;;;3.80;0.80;;;;;;;16.07;100.00;102270.59;5036983;28;20484;-77
2023/10/05 11:44:00;;;;;;;1.70;0.90;;;;;;;16.01;100.00;102282.09;5056301;28;20036;-78
2023/10/05 11:46:46;;;;;;;7.15;0.98;;;;;;;15.94;100.00;102280.28;5046554;28;20044;-77
2023/10/05 11:49:14;;;;;;;4.55;1.55;;;;;;;15.84;100.00;102279.38;5037428;28;20051;-78
2023/10/05 11:51:48;;;;;;;4.10;1.45;;;;;;;15.74;100.00;102290.81;4998377;28;20055;-77
2023/10/05 11:54:15;;;;;;;3.60;1.25;;;;;;;15.61;100.00;102281.84;5049808;28;21041;-77